sensor_id;sensor_type;location;lat;lon;timestamp;temperature;humidity
16627;DHT22;8427;52.204;7.202;2023-04-03T00:01:28;2.70;81.20
16627;DHT22;8427;52.204;7.202;2023-04-03T00:03:56;2.80;81.40
16627;DHT22;8427;52.204;7.202;2023-04-03T00:06:25;2.70;81.30
16627;DHT22;8427;52.204;7.202;2023-04-03T00:08:55;2.70;81.50
16627;DHT22;8427;52.204;7.202;2023-04-03T00:11:24;2.60;81.50
16627;DHT22;8427;52.204;7.202;2023-04-03T00:13:53;2.60;81.60
16627;DHT22;8427;52.204;7.202;2023-04-03T00:16:22;2.60;81.60
16627;DHT22;8427;52.204;7.202;2023-04-03T00:18:50;2.70;81.50
16627;DHT22;8427;52.204;7.202;2023-04-03T00:21:18;2.60;81.60
16627;DHT22;8427;52.204;7.202;2023-04-03T00:23:47;2.40;82.00
16627;DHT22;8427;52.204;7.202;2023-04-03T00:26:15;2.50;82.10
16627;DHT22;8427;52.204;7.202;2023-04-03T00:28:43;2.50;82.10
16627;DHT22;8427;52.204;7.202;2023-04-03T00:31:15;2.50;82.40
16627;DHT22;8427;52.204;7.202;2023-04-03T00:33:44;2.50;82.40
16627;DHT22;8427;52.204;7.202;2023-04-03T00:36:12;2.40;82.70
16627;DHT22;8427;52.204;7.202;2023-04-03T00:38:41;2.20;82.60
16627;DHT22;8427;52.204;7.202;2023-04-03T00:41:09;2.40;82.80
16627;DHT22;8427;52.204;7.202;2023-04-03T00:43:37;2.50;82.90
16627;DHT22;8427;52.204;7.202;2023-04-03T00:46:05;2.30;82.80
16627;DHT22;8427;52.204;7.202;2023-04-03T00:48:37;2.40;82.80
16627;DHT22;8427;52.204;7.202;2023-04-03T00:51:11;2.40;83.00
16627;DHT22;8427;52.204;7.202;2023-04-03T00:53:43;2.20;83.00
16627;DHT22;8427;52.204;7.202;2023-04-03T00:56:14;2.20;83.00
16627;DHT22;8427;52.204;7.202;2023-04-03T00:58:46;2.20;83.10
16627;DHT22;8427;52.204;7.202;2023-04-03T01:01:20;2.20;83.20
16627;DHT22;8427;52.204;7.202;2023-04-03T01:03:51;2.00;83.40
16627;DHT22;8427;52.204;7.202;2023-04-03T01:06:23;2.10;83.60
16627;DHT22;8427;52.204;7.202;2023-04-03T01:08:53;2.00;83.50
16627;DHT22;8427;52.204;7.202;2023-04-03T01:11:22;2.20;83.40
16627;DHT22;8427;52.204;7.202;2023-04-03T01:13:51;2.10;83.50
16627;DHT22;8427;52.204;7.202;2023-04-03T01:16:19;1.90;83.40
16627;DHT22;8427;52.204;7.202;2023-04-03T01:22:33;1.90;83.60
16627;DHT22;8427;52.204;7.202;2023-04-03T01:25:03;1.90;83.50
16627;DHT22;8427;52.204;7.202;2023-04-03T01:27:30;1.80;83.40
16627;DHT22;8427;52.204;7.202;2023-04-03T01:29:58;1.90;83.30
16627;DHT22;8427;52.204;7.202;2023-04-03T01:32:28;1.90;83.30
16627;DHT22;8427;52.204;7.202;2023-04-03T01:34:56;1.70;83.30
16627;DHT22;8427;52.204;7.202;2023-04-03T01:37:24;1.80;83.60
16627;DHT22;8427;52.204;7.202;2023-04-03T01:39:53;1.70;83.50
16627;DHT22;8427;52.204;7.202;2023-04-03T01:42:21;1.60;83.40
16627;DHT22;8427;52.204;7.202;2023-04-03T01:44:50;1.60;83.50
16627;DHT22;8427;52.204;7.202;2023-04-03T01:47:20;1.50;83.20
16627;DHT22;8427;52.204;7.202;2023-04-03T01:49:50;1.60;83.10
16627;DHT22;8427;52.204;7.202;2023-04-03T01:52:18;1.50;82.80
16627;DHT22;8427;52.204;7.202;2023-04-03T01:54:46;1.60;82.50
16627;DHT22;8427;52.204;7.202;2023-04-03T01:57:14;1.50;82.30
16627;DHT22;8427;52.204;7.202;2023-04-03T01:59:43;1.70;81.80
16627;DHT22;8427;52.204;7.202;2023-04-03T02:02:11;1.60;81.50
16627;DHT22;8427;52.204;7.202;2023-04-03T02:04:41;1.40;81.40
16627;DHT22;8427;52.204;7.202;2023-04-03T02:07:10;1.60;81.30
16627;DHT22;8427;52.204;7.202;2023-04-03T02:09:42;1.50;81.40
16627;DHT22;8427;52.204;7.202;2023-04-03T02:12:11;1.50;81.40
16627;DHT22;8427;52.204;7.202;2023-04-03T02:14:40;1.50;81.50
16627;DHT22;8427;52.204;7.202;2023-04-03T02:17:08;1.50;81.60
16627;DHT22;8427;52.204;7.202;2023-04-03T02:19:36;1.40;81.80
16627;DHT22;8427;52.204;7.202;2023-04-03T02:22:04;1.10;81.80
16627;DHT22;8427;52.204;7.202;2023-04-03T02:24:34;1.30;82.10
16627;DHT22;8427;52.204;7.202;2023-04-03T02:27:02;1.10;82.00
16627;DHT22;8427;52.204;7.202;2023-04-03T02:29:30;1.20;82.30
16627;DHT22;8427;52.204;7.202;2023-04-03T02:31:59;1.00;82.50
16627;DHT22;8427;52.204;7.202;2023-04-03T02:34:27;1.00;82.70
16627;DHT22;8427;52.204;7.202;2023-04-03T02:36:54;1.10;82.80
16627;DHT22;8427;52.204;7.202;2023-04-03T02:39:23;0.90;82.60
16627;DHT22;8427;52.204;7.202;2023-04-03T02:41:52;0.90;82.90
16627;DHT22;8427;52.204;7.202;2023-04-03T02:44:20;1.10;82.80
16627;DHT22;8427;52.204;7.202;2023-04-03T02:46:50;1.10;82.50
16627;DHT22;8427;52.204;7.202;2023-04-03T02:49:18;0.90;82.50
16627;DHT22;8427;52.204;7.202;2023-04-03T02:51:46;0.90;82.70
16627;DHT22;8427;52.204;7.202;2023-04-03T02:54:14;1.00;82.60
16627;DHT22;8427;52.204;7.202;2023-04-03T02:56:42;0.70;82.50
16627;DHT22;8427;52.204;7.202;2023-04-03T02:59:11;0.70;82.50
16627;DHT22;8427;52.204;7.202;2023-04-03T03:01:39;0.80;82.30
16627;DHT22;8427;52.204;7.202;2023-04-03T03:04:07;0.70;82.70
16627;DHT22;8427;52.204;7.202;2023-04-03T03:06:36;0.70;82.60
16627;DHT22;8427;52.204;7.202;2023-04-03T03:09:04;0.50;82.80
16627;DHT22;8427;52.204;7.202;2023-04-03T03:11:32;0.70;82.60
16627;DHT22;8427;52.204;7.202;2023-04-03T03:14:00;0.60;83.00
16627;DHT22;8427;52.204;7.202;2023-04-03T03:16:30;0.30;82.90
16627;DHT22;8427;52.204;7.202;2023-04-03T03:18:58;0.50;83.50
16627;DHT22;8427;52.204;7.202;2023-04-03T03:21:26;0.50;83.40
16627;DHT22;8427;52.204;7.202;2023-04-03T03:23:57;0.50;83.60
16627;DHT22;8427;52.204;7.202;2023-04-03T03:26:27;0.50;83.50
16627;DHT22;8427;52.204;7.202;2023-04-03T03:28:56;0.50;83.80
16627;DHT22;8427;52.204;7.202;2023-04-03T03:31:24;0.20;84.00
16627;DHT22;8427;52.204;7.202;2023-04-03T03:33:54;0.30;84.10
16627;DHT22;8427;52.204;7.202;2023-04-03T03:36:21;0.10;84.30
16627;DHT22;8427;52.204;7.202;2023-04-03T03:38:50;0.50;84.40
16627;DHT22;8427;52.204;7.202;2023-04-03T03:41:18;0.40;84.40
16627;DHT22;8427;52.204;7.202;2023-04-03T03:43:46;0.40;84.10
16627;DHT22;8427;52.204;7.202;2023-04-03T03:46:14;0.30;84.00
16627;DHT22;8427;52.204;7.202;2023-04-03T03:48:43;0.30;83.90
16627;DHT22;8427;52.204;7.202;2023-04-03T03:51:13;0.10;84.00
16627;DHT22;8427;52.204;7.202;2023-04-03T03:53:41;0.20;83.80
16627;DHT22;8427;52.204;7.202;2023-04-03T03:56:09;0.20;83.80
16627;DHT22;8427;52.204;7.202;2023-04-03T04:01:07;0.10;83.80
16627;DHT22;8427;52.204;7.202;2023-04-03T04:03:35;0.00;83.70
16627;DHT22;8427;52.204;7.202;2023-04-03T04:06:03;0.20;83.90
16627;DHT22;8427;52.204;7.202;2023-04-03T04:08:33;0.00;84.00
16627;DHT22;8427;52.204;7.202;2023-04-03T04:11:01;-3276.70;84.20
16627;DHT22;8427;52.204;7.202;2023-04-03T04:13:30;0.00;84.10
16627;DHT22;8427;52.204;7.202;2023-04-03T04:15:58;0.00;84.40
16627;DHT22;8427;52.204;7.202;2023-04-03T04:18:26;0.00;84.40
16627;DHT22;8427;52.204;7.202;2023-04-03T04:20:55;0.00;84.40
16627;DHT22;8427;52.204;7.202;2023-04-03T04:23:24;-3276.70;84.30
16627;DHT22;8427;52.204;7.202;2023-04-03T04:25:53;-3276.70;84.20
16627;DHT22;8427;52.204;7.202;2023-04-03T04:28:21;-3276.50;84.30
16627;DHT22;8427;52.204;7.202;2023-04-03T04:30:49;-3276.70;84.40
16627;DHT22;8427;52.204;7.202;2023-04-03T04:33:17;-3276.60;84.50
16627;DHT22;8427;52.204;7.202;2023-04-03T04:35:47;-3276.60;84.60
16627;DHT22;8427;52.204;7.202;2023-04-03T04:38:15;-3276.40;84.60
16627;DHT22;8427;52.204;7.202;2023-04-03T04:40:47;-3276.60;84.50
16627;DHT22;8427;52.204;7.202;2023-04-03T04:43:17;-3276.50;84.60
16627;DHT22;8427;52.204;7.202;2023-04-03T04:45:45;-3276.60;84.70
16627;DHT22;8427;52.204;7.202;2023-04-03T04:48:14;-3276.60;84.60
16627;DHT22;8427;52.204;7.202;2023-04-03T04:50:41;-3276.50;84.70
16627;DHT22;8427;52.204;7.202;2023-04-03T04:53:09;-3276.40;84.80
16627;DHT22;8427;52.204;7.202;2023-04-03T04:55:38;-3276.40;84.90
16627;DHT22;8427;52.204;7.202;2023-04-03T04:58:06;-3276.30;84.90
16627;DHT22;8427;52.204;7.202;2023-04-03T05:00:35;-3276.50;85.00
16627;DHT22;8427;52.204;7.202;2023-04-03T05:03:03;-3276.50;84.70
16627;DHT22;8427;52.204;7.202;2023-04-03T05:05:31;-3276.50;84.40
16627;DHT22;8427;52.204;7.202;2023-04-03T05:08:01;-3276.70;84.40
16627;DHT22;8427;52.204;7.202;2023-04-03T05:10:29;-3276.50;84.20
16627;DHT22;8427;52.204;7.202;2023-04-03T05:12:58;-3276.60;84.00
16627;DHT22;8427;52.204;7.202;2023-04-03T05:15:26;-3276.30;84.00
16627;DHT22;8427;52.204;7.202;2023-04-03T05:17:55;-3276.50;84.00
16627;DHT22;8427;52.204;7.202;2023-04-03T05:20:23;-3276.40;84.00
16627;DHT22;8427;52.204;7.202;2023-04-03T05:22:51;-3276.50;83.90
16627;DHT22;8427;52.204;7.202;2023-04-03T05:25:19;-3276.50;84.00
16627;DHT22;8427;52.204;7.202;2023-04-03T05:27:47;-3276.50;83.90
16627;DHT22;8427;52.204;7.202;2023-04-03T05:30:17;-3276.30;84.40
16627;DHT22;8427;52.204;7.202;2023-04-03T05:32:46;-3276.30;84.40
16627;DHT22;8427;52.204;7.202;2023-04-03T05:35:16;-3276.50;84.30
16627;DHT22;8427;52.204;7.202;2023-04-03T05:37:44;-3276.50;84.20
16627;DHT22;8427;52.204;7.202;2023-04-03T05:40:12;-3276.60;84.30
16627;DHT22;8427;52.204;7.202;2023-04-03T05:42:43;-3276.50;84.20
16627;DHT22;8427;52.204;7.202;2023-04-03T05:45:12;-3276.40;84.40
16627;DHT22;8427;52.204;7.202;2023-04-03T05:47:40;-3276.40;84.50
16627;DHT22;8427;52.204;7.202;2023-04-03T05:50:12;-3276.50;84.30
16627;DHT22;8427;52.204;7.202;2023-04-03T05:52:44;-3276.50;84.40
16627;DHT22;8427;52.204;7.202;2023-04-03T05:55:13;-3276.50;84.30
16627;DHT22;8427;52.204;7.202;2023-04-03T05:57:41;-3276.60;84.20
16627;DHT22;8427;52.204;7.202;2023-04-03T06:00:13;-3276.70;83.90
16627;DHT22;8427;52.204;7.202;2023-04-03T06:02:42;-3276.50;84.10
16627;DHT22;8427;52.204;7.202;2023-04-03T06:05:11;0.00;84.00
16627;DHT22;8427;52.204;7.202;2023-04-03T06:07:41;-3276.70;83.70
16627;DHT22;8427;52.204;7.202;2023-04-03T06:10:11;0.00;83.60
16627;DHT22;8427;52.204;7.202;2023-04-03T06:12:40;0.00;83.50
16627;DHT22;8427;52.204;7.202;2023-04-03T06:15:08;0.00;83.60
16627;DHT22;8427;52.204;7.202;2023-04-03T06:17:38;0.10;83.10
16627;DHT22;8427;52.204;7.202;2023-04-03T06:20:07;0.10;82.90
16627;DHT22;8427;52.204;7.202;2023-04-03T06:22:35;0.50;83.20
16627;DHT22;8427;52.204;7.202;2023-04-03T06:25:14;0.10;82.50
16627;DHT22;8427;52.204;7.202;2023-04-03T06:27:44;0.40;81.40
16627;DHT22;8427;52.204;7.202;2023-04-03T06:30:12;0.50;80.90
16627;DHT22;8427;52.204;7.202;2023-04-03T06:32:40;0.70;80.90
16627;DHT22;8427;52.204;7.202;2023-04-03T06:35:09;0.60;80.60
16627;DHT22;8427;52.204;7.202;2023-04-03T06:37:37;0.60;80.40
16627;DHT22;8427;52.204;7.202;2023-04-03T06:40:17;0.80;80.20
16627;DHT22;8427;52.204;7.202;2023-04-03T06:42:47;0.80;79.10
16627;DHT22;8427;52.204;7.202;2023-04-03T06:45:15;0.70;79.00
16627;DHT22;8427;52.204;7.202;2023-04-03T06:47:43;1.00;79.00
16627;DHT22;8427;52.204;7.202;2023-04-03T06:50:12;1.10;79.10
16627;DHT22;8427;52.204;7.202;2023-04-03T06:52:41;1.20;77.20
16627;DHT22;8427;52.204;7.202;2023-04-03T06:55:11;1.30;77.30
16627;DHT22;8427;52.204;7.202;2023-04-03T06:57:39;1.40;77.20
16627;DHT22;8427;52.204;7.202;2023-04-03T07:00:08;1.40;76.80
16627;DHT22;8427;52.204;7.202;2023-04-03T07:02:38;1.40;75.90
16627;DHT22;8427;52.204;7.202;2023-04-03T07:05:07;1.50;76.60
16627;DHT22;8427;52.204;7.202;2023-04-03T07:07:35;1.60;72.60
16627;DHT22;8427;52.204;7.202;2023-04-03T07:10:05;1.60;74.10
16627;DHT22;8427;52.204;7.202;2023-04-03T07:12:36;1.60;72.40
16627;DHT22;8427;52.204;7.202;2023-04-03T07:15:05;1.90;72.00
16627;DHT22;8427;52.204;7.202;2023-04-03T07:17:34;2.00;71.80
16627;DHT22;8427;52.204;7.202;2023-04-03T07:20:02;2.00;71.00
16627;DHT22;8427;52.204;7.202;2023-04-03T07:22:31;2.00;72.00
16627;DHT22;8427;52.204;7.202;2023-04-03T07:24:59;2.20;71.20
16627;DHT22;8427;52.204;7.202;2023-04-03T07:27:27;2.20;69.70
16627;DHT22;8427;52.204;7.202;2023-04-03T07:29:58;2.30;67.80
16627;DHT22;8427;52.204;7.202;2023-04-03T07:32:27;2.40;65.30
16627;DHT22;8427;52.204;7.202;2023-04-03T07:34:55;2.40;65.60
16627;DHT22;8427;52.204;7.202;2023-04-03T07:37:23;2.40;66.20
16627;DHT22;8427;52.204;7.202;2023-04-03T07:39:51;2.60;66.00
16627;DHT22;8427;52.204;7.202;2023-04-03T07:42:19;2.60;67.30
16627;DHT22;8427;52.204;7.202;2023-04-03T07:44:48;2.60;65.90
16627;DHT22;8427;52.204;7.202;2023-04-03T07:47:18;2.80;64.10
16627;DHT22;8427;52.204;7.202;2023-04-03T07:49:47;2.80;65.00
16627;DHT22;8427;52.204;7.202;2023-04-03T07:52:15;2.90;63.00
16627;DHT22;8427;52.204;7.202;2023-04-03T07:54:49;3.10;63.20
16627;DHT22;8427;52.204;7.202;2023-04-03T07:57:17;3.10;60.90
16627;DHT22;8427;52.204;7.202;2023-04-03T07:59:45;3.10;58.90
16627;DHT22;8427;52.204;7.202;2023-04-03T08:02:13;3.30;60.80
16627;DHT22;8427;52.204;7.202;2023-04-03T08:04:43;3.10;58.60
16627;DHT22;8427;52.204;7.202;2023-04-03T08:07:12;3.20;58.30
16627;DHT22;8427;52.204;7.202;2023-04-03T08:09:40;3.50;58.20
16627;DHT22;8427;52.204;7.202;2023-04-03T08:12:08;3.50;58.20
16627;DHT22;8427;52.204;7.202;2023-04-03T08:14:38;3.50;55.90
16627;DHT22;8427;52.204;7.202;2023-04-03T08:17:06;3.50;55.50
16627;DHT22;8427;52.204;7.202;2023-04-03T08:19:38;3.50;55.70
16627;DHT22;8427;52.204;7.202;2023-04-03T08:22:08;3.40;54.50
16627;DHT22;8427;52.204;7.202;2023-04-03T08:24:37;3.80;53.30
16627;DHT22;8427;52.204;7.202;2023-04-03T08:27:18;4.00;52.60
16627;DHT22;8427;52.204;7.202;2023-04-03T08:29:46;4.00;52.60
16627;DHT22;8427;52.204;7.202;2023-04-03T08:32:14;4.20;52.10
16627;DHT22;8427;52.204;7.202;2023-04-03T08:34:42;4.20;52.00
16627;DHT22;8427;52.204;7.202;2023-04-03T08:37:12;4.40;50.60
16627;DHT22;8427;52.204;7.202;2023-04-03T08:39:43;4.40;50.00
16627;DHT22;8427;52.204;7.202;2023-04-03T08:42:16;4.40;50.30
16627;DHT22;8427;52.204;7.202;2023-04-03T08:44:50;4.80;44.90
16627;DHT22;8427;52.204;7.202;2023-04-03T08:47:23;4.60;46.20
16627;DHT22;8427;52.204;7.202;2023-04-03T08:49:55;4.70;47.70
16627;DHT22;8427;52.204;7.202;2023-04-03T08:52:32;4.80;44.90
16627;DHT22;8427;52.204;7.202;2023-04-03T08:55:06;5.00;46.20
16627;DHT22;8427;52.204;7.202;2023-04-03T08:57:39;5.10;43.50
16627;DHT22;8427;52.204;7.202;2023-04-03T09:00:18;5.10;45.50
16627;DHT22;8427;52.204;7.202;2023-04-03T09:02:48;5.30;42.40
16627;DHT22;8427;52.204;7.202;2023-04-03T09:05:19;5.50;43.20
16627;DHT22;8427;52.204;7.202;2023-04-03T09:07:55;5.40;43.10
16627;DHT22;8427;52.204;7.202;2023-04-03T09:10:29;5.70;43.10
16627;DHT22;8427;52.204;7.202;2023-04-03T09:13:01;5.70;43.50
16627;DHT22;8427;52.204;7.202;2023-04-03T09:15:34;5.60;41.10
16627;DHT22;8427;52.204;7.202;2023-04-03T09:18:11;5.60;41.50
16627;DHT22;8427;52.204;7.202;2023-04-03T09:20:46;5.80;41.10
16627;DHT22;8427;52.204;7.202;2023-04-03T09:34:08;6.10;40.80
16627;DHT22;8427;52.204;7.202;2023-04-03T09:36:40;6.00;40.10
16627;DHT22;8427;52.204;7.202;2023-04-03T09:39:12;6.00;40.40
16627;DHT22;8427;52.204;7.202;2023-04-03T09:41:41;6.10;40.50
16627;DHT22;8427;52.204;7.202;2023-04-03T09:44:21;6.10;41.50
16627;DHT22;8427;52.204;7.202;2023-04-03T09:46:52;6.00;39.70
16627;DHT22;8427;52.204;7.202;2023-04-03T09:49:22;6.00;39.50
16627;DHT22;8427;52.204;7.202;2023-04-03T09:51:51;6.10;38.80
16627;DHT22;8427;52.204;7.202;2023-04-03T09:54:35;6.40;40.60
16627;DHT22;8427;52.204;7.202;2023-04-03T09:57:13;6.10;39.50
16627;DHT22;8427;52.204;7.202;2023-04-03T09:59:56;6.20;40.00
16627;DHT22;8427;52.204;7.202;2023-04-03T10:02:34;6.30;39.50
16627;DHT22;8427;52.204;7.202;2023-04-03T10:05:27;6.50;38.50
16627;DHT22;8427;52.204;7.202;2023-04-03T10:08:10;6.50;40.50
16627;DHT22;8427;52.204;7.202;2023-04-03T10:10:38;6.70;40.30
16627;DHT22;8427;52.204;7.202;2023-04-03T10:13:09;6.70;40.10
16627;DHT22;8427;52.204;7.202;2023-04-03T10:15:51;6.80;39.90
16627;DHT22;8427;52.204;7.202;2023-04-03T10:18:32;6.50;39.30
16627;DHT22;8427;52.204;7.202;2023-04-03T10:21:06;6.60;37.70
16627;DHT22;8427;52.204;7.202;2023-04-03T10:23:52;6.90;38.10
16627;DHT22;8427;52.204;7.202;2023-04-03T10:26:31;6.70;38.50
16627;DHT22;8427;52.204;7.202;2023-04-03T10:29:05;6.60;37.70
16627;DHT22;8427;52.204;7.202;2023-04-03T10:31:40;6.80;39.10
16627;DHT22;8427;52.204;7.202;2023-04-03T10:34:18;6.80;39.00
16627;DHT22;8427;52.204;7.202;2023-04-03T10:36:54;6.80;38.80
16627;DHT22;8427;52.204;7.202;2023-04-03T10:39:28;7.10;39.50
16627;DHT22;8427;52.204;7.202;2023-04-03T10:42:03;7.10;40.10
16627;DHT22;8427;52.204;7.202;2023-04-03T10:45:06;6.90;39.20
16627;DHT22;8427;52.204;7.202;2023-04-03T10:47:39;7.10;39.50
16627;DHT22;8427;52.204;7.202;2023-04-03T10:50:26;7.20;39.80
16627;DHT22;8427;52.204;7.202;2023-04-03T10:53:03;7.50;40.70
16627;DHT22;8427;52.204;7.202;2023-04-03T10:55:36;7.40;41.20
16627;DHT22;8427;52.204;7.202;2023-04-03T10:58:06;7.40;40.50
16627;DHT22;8427;52.204;7.202;2023-04-03T11:00:44;7.20;40.60
16627;DHT22;8427;52.204;7.202;2023-04-03T11:03:16;7.20;41.50
16627;DHT22;8427;52.204;7.202;2023-04-03T11:05:47;7.20;42.50
16627;DHT22;8427;52.204;7.202;2023-04-03T11:08:26;7.70;41.10
16627;DHT22;8427;52.204;7.202;2023-04-03T11:10:57;7.60;40.80
16627;DHT22;8427;52.204;7.202;2023-04-03T11:13:32;7.70;39.80
16627;DHT22;8427;52.204;7.202;2023-04-03T11:16:04;7.70;40.00
16627;DHT22;8427;52.204;7.202;2023-04-03T11:18:37;7.60;40.00
16627;DHT22;8427;52.204;7.202;2023-04-03T11:21:11;7.70;41.20
16627;DHT22;8427;52.204;7.202;2023-04-03T11:23:42;7.70;40.30
16627;DHT22;8427;52.204;7.202;2023-04-03T11:26:18;8.00;42.00
16627;DHT22;8427;52.204;7.202;2023-04-03T11:28:52;7.80;43.60
16627;DHT22;8427;52.204;7.202;2023-04-03T11:31:33;7.70;41.90
16627;DHT22;8427;52.204;7.202;2023-04-03T11:34:19;7.70;42.90
16627;DHT22;8427;52.204;7.202;2023-04-03T11:36:52;7.90;42.30
16627;DHT22;8427;52.204;7.202;2023-04-03T11:39:26;8.00;44.20
16627;DHT22;8427;52.204;7.202;2023-04-03T11:41:56;8.40;42.80
16627;DHT22;8427;52.204;7.202;2023-04-03T11:44:41;8.40;41.80
16627;DHT22;8427;52.204;7.202;2023-04-03T11:47:10;8.40;41.60
16627;DHT22;8427;52.204;7.202;2023-04-03T11:49:56;8.30;45.10
16627;DHT22;8427;52.204;7.202;2023-04-03T11:52:59;8.20;42.30
16627;DHT22;8427;52.204;7.202;2023-04-03T11:56:04;8.20;43.60
16627;DHT22;8427;52.204;7.202;2023-04-03T11:58:33;8.60;41.00
16627;DHT22;8427;52.204;7.202;2023-04-03T12:01:07;8.40;41.00
16627;DHT22;8427;52.204;7.202;2023-04-03T12:07:00;8.50;42.10
16627;DHT22;8427;52.204;7.202;2023-04-03T12:12:29;8.40;41.60
16627;DHT22;8427;52.204;7.202;2023-04-03T12:15:20;8.40;42.70
16627;DHT22;8427;52.204;7.202;2023-04-03T12:17:48;8.40;41.30
16627;DHT22;8427;52.204;7.202;2023-04-03T12:20:52;8.00;41.80
16627;DHT22;8427;52.204;7.202;2023-04-03T12:23:26;7.90;44.00
16627;DHT22;8427;52.204;7.202;2023-04-03T12:26:04;7.90;41.90
16627;DHT22;8427;52.204;7.202;2023-04-03T12:28:39;7.80;42.00
16627;DHT22;8427;52.204;7.202;2023-04-03T12:31:10;8.00;41.90
16627;DHT22;8427;52.204;7.202;2023-04-03T12:34:21;7.70;43.30
16627;DHT22;8427;52.204;7.202;2023-04-03T12:37:00;8.00;42.50
16627;DHT22;8427;52.204;7.202;2023-04-03T12:39:55;8.20;43.20
16627;DHT22;8427;52.204;7.202;2023-04-03T12:42:46;8.30;41.20
16627;DHT22;8427;52.204;7.202;2023-04-03T12:45:22;8.30;41.70
16627;DHT22;8427;52.204;7.202;2023-04-03T12:47:53;8.20;41.70
16627;DHT22;8427;52.204;7.202;2023-04-03T12:50:24;8.50;41.10
16627;DHT22;8427;52.204;7.202;2023-04-03T12:52:57;8.50;40.90
16627;DHT22;8427;52.204;7.202;2023-04-03T12:55:28;8.70;42.40
16627;DHT22;8427;52.204;7.202;2023-04-03T12:57:56;8.50;40.30
16627;DHT22;8427;52.204;7.202;2023-04-03T13:00:38;8.60;39.80
16627;DHT22;8427;52.204;7.202;2023-04-03T13:03:21;8.10;41.30
16627;DHT22;8427;52.204;7.202;2023-04-03T13:05:50;7.90;41.30
16627;DHT22;8427;52.204;7.202;2023-04-03T13:12:11;8.20;41.30
16627;DHT22;8427;52.204;7.202;2023-04-03T13:14:52;8.60;40.70
16627;DHT22;8427;52.204;7.202;2023-04-03T13:17:28;8.60;42.30
16627;DHT22;8427;52.204;7.202;2023-04-03T13:20:10;8.90;40.80
16627;DHT22;8427;52.204;7.202;2023-04-03T13:22:48;8.80;40.80
16627;DHT22;8427;52.204;7.202;2023-04-03T13:25:20;9.10;40.80
16627;DHT22;8427;52.204;7.202;2023-04-03T13:27:50;8.80;42.40
16627;DHT22;8427;52.204;7.202;2023-04-03T13:30:37;8.90;42.60
16627;DHT22;8427;52.204;7.202;2023-04-03T13:33:20;8.50;43.30
16627;DHT22;8427;52.204;7.202;2023-04-03T13:35:55;8.50;43.30
16627;DHT22;8427;52.204;7.202;2023-04-03T13:38:26;8.60;42.60
16627;DHT22;8427;52.204;7.202;2023-04-03T13:40:56;8.50;42.70
16627;DHT22;8427;52.204;7.202;2023-04-03T13:43:28;8.30;43.30
16627;DHT22;8427;52.204;7.202;2023-04-03T13:46:20;8.10;44.20
16627;DHT22;8427;52.204;7.202;2023-04-03T13:48:53;7.90;42.70
16627;DHT22;8427;52.204;7.202;2023-04-03T13:51:25;8.00;42.40
16627;DHT22;8427;52.204;7.202;2023-04-03T13:53:56;7.90;41.60
16627;DHT22;8427;52.204;7.202;2023-04-03T13:56:30;8.10;44.40
16627;DHT22;8427;52.204;7.202;2023-04-03T13:59:21;8.50;42.20
16627;DHT22;8427;52.204;7.202;2023-04-03T14:01:55;8.60;42.00
16627;DHT22;8427;52.204;7.202;2023-04-03T14:04:27;8.60;42.20
16627;DHT22;8427;52.204;7.202;2023-04-03T14:06:56;8.70;41.70
16627;DHT22;8427;52.204;7.202;2023-04-03T14:09:26;8.70;42.20
16627;DHT22;8427;52.204;7.202;2023-04-03T14:12:06;8.50;41.30
16627;DHT22;8427;52.204;7.202;2023-04-03T14:14:44;8.70;42.30
16627;DHT22;8427;52.204;7.202;2023-04-03T14:17:16;8.50;40.50
16627;DHT22;8427;52.204;7.202;2023-04-03T14:19:54;8.70;41.20
16627;DHT22;8427;52.204;7.202;2023-04-03T14:22:26;8.80;42.10
16627;DHT22;8427;52.204;7.202;2023-04-03T14:24:55;8.80;40.20
16627;DHT22;8427;52.204;7.202;2023-04-03T14:27:27;8.70;40.40
16627;DHT22;8427;52.204;7.202;2023-04-03T14:29:57;8.80;39.70
16627;DHT22;8427;52.204;7.202;2023-04-03T14:32:27;9.00;40.60
16627;DHT22;8427;52.204;7.202;2023-04-03T14:34:57;9.40;39.60
16627;DHT22;8427;52.204;7.202;2023-04-03T14:37:28;9.50;39.30
16627;DHT22;8427;52.204;7.202;2023-04-03T14:39:59;9.70;39.80
16627;DHT22;8427;52.204;7.202;2023-04-03T14:42:30;9.80;39.50
16627;DHT22;8427;52.204;7.202;2023-04-03T14:45:08;9.50;40.40
16627;DHT22;8427;52.204;7.202;2023-04-03T14:47:40;9.20;42.80
16627;DHT22;8427;52.204;7.202;2023-04-03T14:50:15;8.40;42.50
16627;DHT22;8427;52.204;7.202;2023-04-03T14:52:45;8.20;43.50
16627;DHT22;8427;52.204;7.202;2023-04-03T14:55:16;8.30;46.40
16627;DHT22;8427;52.204;7.202;2023-04-03T14:57:44;8.50;44.20
16627;DHT22;8427;52.204;7.202;2023-04-03T15:00:16;8.60;43.80
16627;DHT22;8427;52.204;7.202;2023-04-03T15:02:46;8.60;41.90
16627;DHT22;8427;52.204;7.202;2023-04-03T15:05:17;8.90;42.80
16627;DHT22;8427;52.204;7.202;2023-04-03T15:07:49;9.00;41.50
16627;DHT22;8427;52.204;7.202;2023-04-03T15:10:22;8.80;40.20
16627;DHT22;8427;52.204;7.202;2023-04-03T15:12:52;8.30;40.90
16627;DHT22;8427;52.204;7.202;2023-04-03T15:15:23;8.30;41.80
16627;DHT22;8427;52.204;7.202;2023-04-03T15:17:54;8.10;41.80
16627;DHT22;8427;52.204;7.202;2023-04-03T15:20:27;8.20;42.50
16627;DHT22;8427;52.204;7.202;2023-04-03T15:22:58;8.40;41.50
16627;DHT22;8427;52.204;7.202;2023-04-03T15:25:30;8.60;42.70
16627;DHT22;8427;52.204;7.202;2023-04-03T15:27:59;8.80;40.30
16627;DHT22;8427;52.204;7.202;2023-04-03T15:30:32;8.80;44.30
16627;DHT22;8427;52.204;7.202;2023-04-03T15:33:00;8.70;41.80
16627;DHT22;8427;52.204;7.202;2023-04-03T15:35:34;8.90;40.10
16627;DHT22;8427;52.204;7.202;2023-04-03T15:38:02;8.70;39.60
16627;DHT22;8427;52.204;7.202;2023-04-03T15:40:34;8.70;40.20
16627;DHT22;8427;52.204;7.202;2023-04-03T15:43:05;8.40;39.90
16627;DHT22;8427;52.204;7.202;2023-04-03T15:45:36;8.70;41.50
16627;DHT22;8427;52.204;7.202;2023-04-03T15:48:07;8.80;40.60
16627;DHT22;8427;52.204;7.202;2023-04-03T15:50:41;8.80;40.50
16627;DHT22;8427;52.204;7.202;2023-04-03T15:53:13;9.00;41.80
16627;DHT22;8427;52.204;7.202;2023-04-03T15:55:42;8.90;40.60
16627;DHT22;8427;52.204;7.202;2023-04-03T15:58:11;8.80;40.30
16627;DHT22;8427;52.204;7.202;2023-04-03T16:00:41;8.60;40.60
16627;DHT22;8427;52.204;7.202;2023-04-03T16:03:12;8.20;41.40
16627;DHT22;8427;52.204;7.202;2023-04-03T16:05:44;8.10;41.40
16627;DHT22;8427;52.204;7.202;2023-04-03T16:08:14;7.90;40.90
16627;DHT22;8427;52.204;7.202;2023-04-03T16:10:44;7.90;43.10
16627;DHT22;8427;52.204;7.202;2023-04-03T16:13:14;8.40;41.50
16627;DHT22;8427;52.204;7.202;2023-04-03T16:15:43;8.80;41.70
16627;DHT22;8427;52.204;7.202;2023-04-03T16:18:13;8.90;39.10
16627;DHT22;8427;52.204;7.202;2023-04-03T16:20:45;9.20;40.60
16627;DHT22;8427;52.204;7.202;2023-04-03T16:23:14;9.40;38.70
16627;DHT22;8427;52.204;7.202;2023-04-03T16:25:44;9.30;39.50
16627;DHT22;8427;52.204;7.202;2023-04-03T16:28:22;9.30;38.80
16627;DHT22;8427;52.204;7.202;2023-04-03T16:30:50;9.10;39.20
16627;DHT22;8427;52.204;7.202;2023-04-03T16:33:21;8.50;39.40
16627;DHT22;8427;52.204;7.202;2023-04-03T16:35:51;8.30;40.30
16627;DHT22;8427;52.204;7.202;2023-04-03T16:38:20;8.40;42.50
16627;DHT22;8427;52.204;7.202;2023-04-03T16:40:49;8.60;40.90
16627;DHT22;8427;52.204;7.202;2023-04-03T16:43:19;8.90;42.20
16627;DHT22;8427;52.204;7.202;2023-04-03T16:45:51;8.80;41.40
16627;DHT22;8427;52.204;7.202;2023-04-03T16:48:20;8.80;40.40
16627;DHT22;8427;52.204;7.202;2023-04-03T16:50:50;8.50;41.00